createdAt,value
2023-02-25T00:02:42.420Z,100720.69
2023-02-25T00:07:46.848Z,100723.25
2023-02-25T00:12:49.604Z,100725.84
2023-02-25T00:17:52.477Z,100710.38
2023-02-25T00:22:56.661Z,100721.56
2023-02-25T00:27:59.444Z,100725.84
2023-02-25T00:33:02.276Z,100740.47
2023-02-25T00:38:15.624Z,100739.63
2023-02-25T00:43:22.126Z,100744.81
2023-02-25T00:48:25.789Z,100751.69
2023-02-25T00:53:30.267Z,100751.69
2023-02-25T00:58:33.243Z,100760.34
2023-02-25T01:03:36.114Z,100767.22
2023-02-25T01:08:40.438Z,100786.19
2023-02-25T01:13:43.781Z,100772.38
2023-02-25T01:18:47.578Z,100768.09
2023-02-25T01:23:58.379Z,100775.00
2023-02-25T01:29:01.244Z,100771.53
2023-02-25T01:34:05.713Z,100767.25
2023-02-25T01:39:10.139Z,100755.16
2023-02-25T01:44:15.844Z,100763.75
2023-02-25T01:49:21.501Z,100772.38
2023-02-25T01:54:25.893Z,100767.19
2023-02-25T01:59:30.952Z,100756.00
2023-02-25T02:04:33.855Z,100761.19
2023-02-25T02:09:40.293Z,100768.09
2023-02-25T02:14:43.518Z,100766.34
2023-02-25T02:20:13.086Z,100754.31
2023-02-25T02:25:57.682Z,100763.75
2023-02-25T02:31:21.577Z,100779.28
2023-02-25T02:36:30.547Z,100773.25
2023-02-25T02:41:36.280Z,100781.88
2023-02-25T02:46:44.058Z,100787.06
2023-02-25T02:51:51.023Z,100790.47
2023-02-25T02:56:55.301Z,100787.00
2023-02-25T03:02:05.550Z,100791.31
2023-02-25T03:07:12.485Z,100793.91
2023-02-25T03:12:15.508Z,100802.47
2023-02-25T03:17:22.960Z,100812.84
2023-02-25T03:22:29.726Z,100802.53
2023-02-25T03:27:35.665Z,100812.00
2023-02-25T03:32:44.916Z,100819.75
2023-02-25T03:37:50.260Z,100823.19
2023-02-25T03:42:57.815Z,100833.53
2023-02-25T03:48:03.213Z,100844.75
2023-02-25T03:53:06.456Z,100836.13
2023-02-25T03:58:40.235Z,100824.03
2023-02-25T04:03:44.961Z,100836.09
2023-02-25T04:08:49.018Z,100861.06
2023-02-25T04:13:51.992Z,100859.28
2023-02-25T04:18:56.629Z,100866.16
2023-02-25T04:24:00.132Z,100862.72
2023-02-25T04:29:04.702Z,100861.00
2023-02-25T04:34:08.911Z,100864.44
2023-02-25T04:39:12.464Z,100871.34
2023-02-25T04:44:15.748Z,100874.88
2023-02-25T04:49:20.917Z,100873.19
2023-02-25T04:54:23.793Z,100884.38
2023-02-25T04:59:26.826Z,100877.44
2023-02-25T05:04:30.936Z,100875.69
2023-02-25T05:09:34.031Z,100874.84
2023-02-25T05:14:38.204Z,100883.44
2023-02-25T05:19:42.595Z,100881.69
2023-02-25T05:24:45.370Z,100882.53
2023-02-25T05:29:48.158Z,100898.88
2023-02-25T05:34:52.321Z,100892.81
2023-02-25T05:39:55.305Z,100883.31
2023-02-25T05:44:58.161Z,100892.69
2023-02-25T05:50:02.774Z,100887.53
2023-02-25T05:55:08.637Z,100882.41
2023-02-25T06:00:15.079Z,100898.78
2023-02-25T06:05:19.653Z,100898.81
2023-02-25T06:10:22.488Z,100901.41
2023-02-25T06:15:25.332Z,100911.72
2023-02-25T06:20:29.522Z,100919.47
2023-02-25T06:25:32.715Z,100914.31
2023-02-25T06:30:35.632Z,100926.38
2023-02-25T06:35:39.913Z,100924.63
2023-02-25T06:40:42.777Z,100942.72
2023-02-25T06:45:46.095Z,100941.84
2023-02-25T06:50:50.567Z,100949.59
2023-02-25T06:55:53.446Z,100948.75
2023-02-25T07:00:56.357Z,100959.16
2023-02-25T07:06:00.599Z,100960.84
2023-02-25T07:11:15.384Z,100962.59
2023-02-25T07:16:19.063Z,100968.63
2023-02-25T07:21:23.570Z,100978.09
2023-02-25T07:26:28.244Z,100985.06
2023-02-25T07:31:31.253Z,100995.41
2023-02-25T07:36:38.035Z,100994.56
2023-02-25T07:41:41.202Z,100994.63
2023-02-25T07:46:47.193Z,101013.59
2023-02-25T07:51:51.366Z,101028.31
2023-02-25T07:56:54.317Z,101034.41
2023-02-25T08:01:57.155Z,101043.97
2023-02-25T08:07:02.195Z,101064.59
2023-02-25T08:12:05.311Z,101042.09
2023-02-25T08:17:08.243Z,101044.66
2023-02-25T08:22:12.572Z,101052.50
2023-02-25T08:27:15.801Z,101035.28
2023-02-25T08:32:19.152Z,101036.25
2023-02-25T08:37:25.632Z,101023.31
2023-02-25T08:42:28.732Z,101029.31
2023-02-25T08:47:31.639Z,101035.34
2023-02-25T08:52:35.987Z,101029.34
2023-02-25T08:57:38.937Z,101034.56
2023-02-25T09:02:41.933Z,101040.59
2023-02-25T09:07:46.178Z,101051.00
2023-02-25T09:12:49.894Z,101052.78
2023-02-25T09:17:53.148Z,101073.47
2023-02-25T09:22:58.089Z,101078.44
2023-02-25T09:28:00.958Z,101098.16
2023-02-25T09:33:04.075Z,101109.47
2023-02-25T09:38:08.472Z,101124.19
2023-02-25T09:43:26.802Z,101141.63
2023-02-25T09:48:33.180Z,101147.75
2023-02-25T09:53:41.004Z,101149.44
2023-02-25T09:58:46.777Z,101155.41
2023-02-25T10:03:55.676Z,101163.91
2023-02-25T10:09:07.237Z,101188.00
2023-02-25T10:14:19.038Z,101181.81
2023-02-25T10:19:33.931Z,101194.84
2023-02-25T10:24:42.258Z,101182.56
2023-02-25T10:29:49.223Z,101193.63
2023-02-25T10:34:52.693Z,101218.19
2023-02-25T10:39:58.593Z,101224.66
2023-02-25T10:45:13.694Z,101239.38
2023-02-25T10:50:20.891Z,101231.53
2023-02-25T10:55:32.657Z,101248.84
2023-02-25T11:00:36.642Z,101259.25
2023-02-25T11:05:41.486Z,101254.09
2023-02-25T11:11:02.036Z,101253.19
2023-02-25T11:16:08.391Z,101244.34
2023-02-25T11:21:14.485Z,101265.97
2023-02-25T11:26:28.802Z,101272.94
2023-02-25T11:31:35.790Z,101280.63
2023-02-25T11:36:40.275Z,101271.88
2023-02-25T11:41:45.767Z,101279.84
2023-02-25T11:46:56.685Z,101277.97
2023-02-25T11:52:06.032Z,101282.41
2023-02-25T11:57:16.662Z,101292.72
2023-02-25T12:02:33.529Z,101289.22
2023-02-25T12:08:12.994Z,101288.28
2023-02-25T12:13:38.640Z,101291.72
2023-02-25T12:19:11.409Z,101285.69
2023-02-25T12:24:44.467Z,101292.50
2023-02-25T12:30:05.367Z,101304.41
2023-02-25T12:35:23.272Z,101303.31
2023-02-25T12:40:41.949Z,101309.28
2023-02-25T12:45:56.543Z,101325.28
2023-02-25T12:51:23.270Z,101325.97
2023-02-25T12:57:04.583Z,101343.69
2023-02-25T13:02:26.209Z,101335.91
2023-02-25T13:07:41.376Z,101351.41
2023-02-25T13:12:58.778Z,101355.94
2023-02-25T13:18:12.576Z,101351.59
2023-02-25T13:23:32.707Z,101348.06
2023-02-25T13:28:55.834Z,101364.53
2023-02-25T13:34:11.040Z,101377.50
2023-02-25T13:39:56.130Z,101375.66
2023-02-25T13:45:19.872Z,101386.19
2023-02-25T13:50:46.779Z,101387.97
2023-02-25T13:56:08.938Z,101393.09
2023-02-25T14:01:28.107Z,101393.06
2023-02-25T14:06:54.874Z,101396.53
2023-02-25T14:12:12.138Z,101402.69
2023-02-25T14:17:41.780Z,101417.31
2023-02-25T14:22:49.615Z,101429.38
2023-02-25T14:28:03.196Z,101428.53
2023-02-25T14:33:19.474Z,101446.88
2023-02-25T14:38:30.635Z,101445.25
2023-02-25T14:43:34.705Z,101461.69
2023-02-25T14:48:42.684Z,101459.09
2023-02-25T14:54:26.967Z,101474.69
2023-02-25T14:59:42.084Z,101476.41
2023-02-25T15:05:02.099Z,101484.22
2023-02-25T15:10:24.261Z,101486.75
2023-02-25T15:15:36.402Z,101480.72
2023-02-25T15:20:40.080Z,101505.03
2023-02-25T15:25:47.992Z,101494.66
2023-02-25T15:31:29.936Z,101506.78
2023-02-25T15:36:41.765Z,101506.78
2023-02-25T15:41:47.059Z,101518.94
2023-02-25T15:46:50.799Z,101524.97
2023-02-25T15:51:55.789Z,101531.91
2023-02-25T15:57:01.825Z,101531.00
2023-02-25T16:02:46.326Z,101531.84
2023-02-25T16:07:51.389Z,101546.53
2023-02-25T16:12:57.580Z,101551.66
2023-02-25T16:18:08.003Z,101560.16
2023-02-25T16:23:11.929Z,101570.41
2023-02-25T16:28:22.496Z,101568.59
2023-02-25T16:33:30.519Z,101580.56
2023-02-25T16:38:43.151Z,101586.50
2023-02-25T16:43:48.245Z,101583.78
2023-02-25T16:48:52.805Z,101593.06
2023-02-25T16:54:02.442Z,101604.13
2023-02-25T16:59:08.529Z,101614.28
2023-02-25T17:04:17.121Z,101615.81
2023-02-25T17:09:24.822Z,101624.25
2023-02-25T17:14:30.569Z,101631.81
2023-02-25T17:19:33.573Z,101637.66
2023-02-25T17:24:36.497Z,101635.72
2023-02-25T17:29:40.628Z,101636.41
2023-02-25T17:34:43.584Z,101645.66
2023-02-25T17:39:46.537Z,101652.44
2023-02-25T17:44:50.723Z,101649.66
2023-02-25T17:49:54.339Z,101659.84
2023-02-25T17:54:59.750Z,101663.13
2023-02-25T18:00:21.181Z,101671.56
2023-02-25T18:05:27.986Z,101678.38
2023-02-25T18:10:55.925Z,101681.75
2023-02-25T18:16:31.657Z,101694.53
2023-02-25T18:21:40.900Z,101691.81
2023-02-25T18:27:01.420Z,101700.34
2023-02-25T18:32:05.806Z,101701.06
2023-02-25T18:37:10.410Z,101703.56
2023-02-25T18:42:16.042Z,101719.75
2023-02-25T18:47:20.248Z,101725.59
2023-02-25T18:52:25.151Z,101733.13
2023-02-25T18:57:28.999Z,101743.25
2023-02-25T19:02:34.539Z,101731.88
2023-02-25T19:07:37.533Z,101743.84
2023-02-25T19:12:40.414Z,101754.97
2023-02-25T19:17:44.702Z,101753.22
2023-02-25T19:22:49.292Z,101753.06
2023-02-25T19:27:53.296Z,101760.72
2023-02-25T19:33:02.814Z,101754.47
2023-02-25T19:38:08.826Z,101766.44
2023-02-25T19:43:12.220Z,101778.31
2023-02-25T19:48:16.411Z,101779.13
2023-02-25T19:53:19.334Z,101782.44
2023-02-25T19:58:22.080Z,101781.50
2023-02-25T20:03:26.390Z,101787.63
2023-02-25T20:08:29.232Z,101784.47
2023-02-25T20:13:32.156Z,101799.47
2023-02-25T20:18:36.371Z,101803.25
2023-02-25T20:23:39.953Z,101795.66
2023-02-25T20:28:42.901Z,101798.91
2023-02-25T20:33:49.640Z,101799.59
2023-02-25T20:39:17.069Z,101802.81
2023-02-25T20:44:19.988Z,101812.91
2023-02-25T20:49:25.463Z,101815.38
2023-02-25T20:54:28.347Z,101824.06
2023-02-25T20:59:31.108Z,101829.28
2023-02-25T21:04:35.399Z,101843.19
2023-02-25T21:09:38.349Z,101834.81
2023-02-25T21:14:41.247Z,101844.34
2023-02-25T21:19:45.405Z,101845.03
2023-02-25T21:24:48.235Z,101847.47
2023-02-25T21:29:51.381Z,101856.03
2023-02-25T21:34:55.593Z,101853.22
2023-02-25T21:39:58.433Z,101858.16
2023-02-25T21:45:01.216Z,101868.25
2023-02-25T21:50:06.102Z,101881.84
2023-02-25T21:55:10.202Z,101890.25
2023-02-25T22:00:14.137Z,101893.59
2023-02-25T22:05:18.768Z,101897.88
2023-02-25T22:10:22.292Z,101891.97
2023-02-25T22:15:27.692Z,101897.88
2023-02-25T22:20:32.472Z,101895.44
2023-02-25T22:25:35.280Z,101896.47
2023-02-25T22:30:38.211Z,101906.78
2023-02-25T22:35:42.474Z,101909.19
2023-02-25T22:40:45.343Z,101913.25
2023-02-25T22:45:48.219Z,101907.91
2023-02-25T22:50:52.597Z,101911.09
2023-02-25T22:55:55.469Z,101916.19
2023-02-25T23:00:58.466Z,101910.94
2023-02-25T23:06:02.839Z,101906.47
2023-02-25T23:11:11.172Z,101909.91
2023-02-25T23:16:14.886Z,101919.50
2023-02-25T23:21:20.764Z,101914.38
2023-02-25T23:26:25.932Z,101928.31
2023-02-25T23:31:30.718Z,101936.22
2023-02-25T23:36:34.953Z,101951.09
2023-02-25T23:41:39.181Z,101959.94
2023-02-25T23:46:45.107Z,101969.69
2023-02-25T23:51:49.550Z,101979.47
2023-02-25T23:56:52.946Z,101985.13
